Time;durP1;ratioP1;P1;durP2;ratioP2;P2;SDS_P1;SDS_P2;PMS_P1;PMS_P2;Temp;Humidity;BMP_temperature;BMP_pressure;BME280_temperature;BME280_humidity;BME280_pressure;Samples;Min_cycle;Max_cycle;Signal;HPM_P1;HPM_P2
2022/09/02 00:01:00;;;;;;;4.82;1.23;;;14.80;99.90;;;;;;5094799;28;20040;-45
2022/09/02 00:03:34;;;;;;;6.25;1.10;;;14.90;99.90;;;;;;5092969;28;20624;-43
2022/09/02 00:06:01;;;;;;;3.67;1.00;;;14.40;99.90;;;;;;5092101;28;20040;-45
2022/09/02 00:08:27;;;;;;;3.35;1.02;;;14.60;99.90;;;;;;5091833;28;20499;-47
2022/09/02 00:10:53;;;;;;;3.03;1.10;;;14.50;99.90;;;;;;5091423;28;20507;-45
2022/09/02 00:13:20;;;;;;;4.40;1.10;;;14.50;99.90;;;;;;5093065;28;20036;-46
2022/09/02 00:15:47;;;;;;;2.75;1.00;;;15.30;99.90;;;;;;5091496;28;20181;-47
2022/09/02 00:18:14;;;;;;;4.05;1.13;;;14.40;99.90;;;;;;5092035;28;20044;-49
2022/09/02 00:20:42;;;;;;;4.13;1.17;;;14.40;99.90;;;;;;5090348;28;20471;-44
2022/09/02 00:23:08;;;;;;;1.88;0.90;;;15.80;99.90;;;;;;5090467;28;20104;-47
2022/09/02 00:25:35;;;;;;;1.73;0.90;;;14.20;99.90;;;;;;5092170;28;20044;-47
2022/09/02 00:28:01;;;;;;;4.43;1.10;;;14.40;99.90;;;;;;5093612;28;20063;-46
2022/09/02 00:30:27;;;;;;;2.63;1.20;;;14.30;99.90;;;;;;5093047;28;20806;-45
2022/09/02 00:32:53;;;;;;;1.90;1.10;;;14.30;99.90;;;;;;5093166;28;20051;-46
2022/09/02 00:35:19;;;;;;;2.60;1.23;;;14.30;99.90;;;;;;5097124;27;20415;-46
2022/09/02 00:37:45;;;;;;;2.53;1.20;;;14.00;99.90;;;;;;5096853;27;20040;-49
2022/09/02 00:40:12;;;;;;;2.90;1.10;;;14.10;99.90;;;;;;5096276;27;20039;-47
2022/09/02 00:42:38;;;;;;;2.28;1.23;;;14.10;99.90;;;;;;5096646;27;20760;-45
2022/09/02 00:45:06;;;;;;;5.05;0.90;;;14.10;99.90;;;;;;5096389;27;20035;-47
2022/09/02 00:47:32;;;;;;;2.75;1.10;;;14.00;99.90;;;;;;5097141;28;20055;-47
2022/09/02 00:49:59;;;;;;;2.40;1.10;;;13.80;99.90;;;;;;5094731;28;20082;-45
2022/09/02 00:52:33;;;;;;;1.92;0.95;;;13.80;99.90;;;;;;5096400;27;20072;-44
2022/09/02 00:55:07;;;;;;;2.95;1.13;;;13.90;99.90;;;;;;5096382;27;20063;-44
2022/09/02 00:57:43;;;;;;;2.80;1.30;;;13.80;99.90;;;;;;5095466;27;20054;-45
2022/09/02 01:00:17;;;;;;;3.60;1.13;;;13.80;99.90;;;;;;5096902;27;20038;-47
2022/09/02 01:02:49;;;;;;;2.42;1.00;;;13.80;99.90;;;;;;5095546;27;20042;-47
2022/09/02 01:05:18;;;;;;;2.72;1.00;;;13.70;99.90;;;;;;5096628;27;20051;-45
2022/09/02 01:07:44;;;;;;;6.40;1.20;;;13.70;99.90;;;;;;5095270;27;20044;-45
2022/09/02 01:10:20;;;;;;;4.82;1.05;;;13.60;99.90;;;;;;5095960;27;20074;-48
2022/09/02 01:12:46;;;;;;;2.50;1.05;;;13.50;99.90;;;;;;5095069;27;20732;-48
2022/09/02 01:15:14;;;;;;;2.58;1.20;;;14.30;99.90;;;;;;5096094;27;20291;-46
2022/09/02 01:17:45;;;;;;;5.15;1.25;;;13.60;99.90;;;;;;5095185;27;20036;-46
2022/09/02 01:20:16;;;;;;;2.85;1.13;;;13.60;99.90;;;;;;5095309;27;20089;-46
2022/09/02 01:22:44;;;;;;;3.20;1.20;;;14.00;99.90;;;;;;5094808;28;20044;-48
2022/09/02 01:25:20;;;;;;;4.47;1.17;;;13.40;99.90;;;;;;5094786;28;20052;-47
2022/09/02 01:27:47;;;;;;;6.28;1.30;;;13.50;99.90;;;;;;5095665;27;20035;-46
2022/09/02 01:30:20;;;;;;;3.20;1.10;;;13.30;99.90;;;;;;5095639;27;20160;-44
2022/09/02 01:32:45;;;;;;;2.08;1.10;;;13.50;99.90;;;;;;5094995;27;20097;-45
2022/09/02 01:35:12;;;;;;;2.15;1.10;;;13.50;99.90;;;;;;5096553;27;20078;-45
2022/09/02 01:37:38;;;;;;;4.65;1.35;;;13.40;99.90;;;;;;5096064;27;20493;-48
2022/09/02 01:40:07;;;;;;;2.25;1.00;;;13.50;99.90;;;;;;5096201;27;20556;-45
2022/09/02 01:42:33;;;;;;;3.80;1.10;;;13.50;99.90;;;;;;5095470;27;20044;-44
2022/09/02 01:44:59;;;;;;;7.07;1.75;;;13.40;99.90;;;;;;5094404;28;20375;-49
2022/09/02 01:47:26;;;;;;;6.68;1.20;;;13.40;99.90;;;;;;5096871;27;20668;-46
2022/09/02 01:49:52;;;;;;;1.58;1.00;;;13.30;99.90;;;;;;5097070;27;20062;-48
2022/09/02 01:52:20;;;;;;;3.22;1.10;;;13.20;99.90;;;;;;5095513;27;20071;-47
2022/09/02 01:54:45;;;;;;;5.70;1.40;;;13.40;99.90;;;;;;5094975;27;20044;-44
2022/09/02 01:57:12;;;;;;;2.88;1.40;;;13.10;99.90;;;;;;5094931;27;20035;-47
2022/09/02 01:59:37;;;;;;;2.35;1.20;;;13.10;99.90;;;;;;5095743;28;20047;-47
2022/09/02 02:02:04;;;;;;;5.25;1.30;;;13.20;99.90;;;;;;5096208;28;20055;-44
2022/09/02 02:04:30;;;;;;;4.90;1.35;;;13.20;99.90;;;;;;5096224;27;20043;-46
2022/09/02 02:06:56;;;;;;;2.70;1.20;;;13.20;99.90;;;;;;5095113;27;20043;-46
2022/09/02 02:09:22;;;;;;;2.80;0.98;;;13.10;99.90;;;;;;5093543;27;20047;-45
2022/09/02 02:11:48;;;;;;;4.60;1.20;;;13.20;99.90;;;;;;5095235;28;20047;-47
2022/09/02 02:14:14;;;;;;;2.53;1.10;;;13.20;99.90;;;;;;5093839;27;20410;-46
2022/09/02 02:16:40;;;;;;;4.38;1.30;;;13.10;99.90;;;;;;5094824;27;20092;-47
2022/09/02 02:19:06;;;;;;;5.03;1.15;;;13.20;99.90;;;;;;5095938;27;20047;-47
2022/09/02 02:21:32;;;;;;;2.50;1.00;;;11.60;99.90;;;;;;5095070;27;20057;-43
2022/09/02 02:24:01;;;;;;;3.22;1.30;;;14.60;99.90;;;;;;5093988;27;20123;-46
2022/09/02 02:26:31;;;;;;;6.80;1.13;;;13.00;99.90;;;;;;5093814;27;20051;-47
2022/09/02 02:28:56;;;;;;;7.43;1.38;;;13.00;99.90;;;;;;5093917;27;20047;-46
2022/09/02 02:31:23;;;;;;;2.92;1.05;;;12.90;99.90;;;;;;5095035;27;20036;-47
2022/09/02 02:33:50;;;;;;;5.32;1.20;;;12.90;99.90;;;;;;5095540;27;20051;-45
2022/09/02 02:36:16;;;;;;;3.20;1.20;;;12.80;99.90;;;;;;5094361;27;20050;-46
2022/09/02 02:38:45;;;;;;;3.83;1.23;;;12.90;99.90;;;;;;5093661;27;20449;-46
2022/09/02 02:41:11;;;;;;;5.10;1.20;;;12.80;99.90;;;;;;5094240;27;20081;-46
2022/09/02 02:43:38;;;;;;;3.22;1.10;;;12.90;99.90;;;;;;5094430;27;20039;-46
2022/09/02 02:46:05;;;;;;;2.60;0.95;;;13.00;99.90;;;;;;5093130;28;20043;-45
2022/09/02 02:48:32;;;;;;;5.35;1.20;;;13.00;99.90;;;;;;5093717;27;20051;-47
2022/09/02 02:50:58;;;;;;;2.55;1.20;;;13.00;99.90;;;;;;5091702;28;20052;-44
2022/09/02 02:53:24;;;;;;;2.90;1.10;;;12.90;99.90;;;;;;5093544;27;20928;-44
2022/09/02 02:55:50;;;;;;;1.85;0.90;;;13.90;99.90;;;;;;5094048;28;20042;-47
2022/09/02 02:58:16;;;;;;;6.47;1.10;;;13.30;99.90;;;;;;5093891;27;20412;-47
2022/09/02 03:00:43;;;;;;;3.10;0.93;;;12.70;99.90;;;;;;5095941;27;20039;-44
2022/09/02 03:03:10;;;;;;;2.03;0.90;;;14.90;99.90;;;;;;5094067;27;20446;-44
2022/09/02 03:05:37;;;;;;;4.65;1.10;;;13.40;99.90;;;;;;5094829;27;20032;-49
2022/09/02 03:08:08;;;;;;;3.03;1.13;;;12.80;99.90;;;;;;5094678;27;20039;-47
2022/09/02 03:10:35;;;;;;;6.13;1.10;;;12.80;99.90;;;;;;5094376;27;20046;-46
2022/09/02 03:13:01;;;;;;;2.65;0.98;;;13.00;99.90;;;;;;5093493;27;20050;-45
2022/09/02 03:15:28;;;;;;;2.88;1.13;;;13.20;99.90;;;;;;5093421;28;20054;-47
2022/09/02 03:17:55;;;;;;;2.25;0.90;;;12.90;99.90;;;;;;5094474;27;20407;-47
2022/09/02 03:20:23;;;;;;;3.22;1.02;;;12.90;99.90;;;;;;5094880;28;20047;-47
2022/09/02 03:22:53;;;;;;;4.28;0.93;;;12.90;99.90;;;;;;5093003;27;20560;-46
2022/09/02 03:25:20;;;;;;;2.20;0.93;;;12.90;99.90;;;;;;5092435;28;20048;-44
2022/09/02 03:27:47;;;;;;;2.75;1.27;;;12.80;99.90;;;;;;5092975;27;20068;-47
2022/09/02 03:30:17;;;;;;;3.65;1.13;;;13.00;99.90;;;;;;5093315;28;20524;-48
2022/09/02 03:32:43;;;;;;;1.98;1.00;;;12.80;99.90;;;;;;5093412;28;20046;-46
2022/09/02 03:35:11;;;;;;;2.70;1.17;;;13.00;99.90;;;;;;5093163;28;20051;-48
2022/09/02 03:37:37;;;;;;;3.03;1.17;;;12.40;99.90;;;;;;5092376;28;20039;-47
2022/09/02 03:40:06;;;;;;;2.72;1.23;;;12.50;99.90;;;;;;5090774;27;20039;-46
2022/09/02 03:42:32;;;;;;;4.03;1.30;;;12.50;99.90;;;;;;5092393;27;20186;-47
2022/09/02 03:44:58;;;;;;;2.45;0.90;;;12.80;99.90;;;;;;5092586;27;20039;-48
2022/09/02 03:47:27;;;;;;;3.67;1.15;;;12.70;99.90;;;;;;5091872;28;20130;-47
2022/09/02 03:49:53;;;;;;;5.15;1.40;;;12.90;99.90;;;;;;5093572;28;20051;-48
2022/09/02 03:52:19;;;;;;;3.35;1.20;;;12.70;99.90;;;;;;5093189;27;20051;-46
2022/09/02 03:54:45;;;;;;;3.83;1.42;;;12.60;99.90;;;;;;5092197;27;20128;-48
2022/09/02 03:57:10;;;;;;;2.85;1.20;;;12.70;99.90;;;;;;5091783;28;20617;-46
2022/09/02 03:59:36;;;;;;;2.22;1.08;;;12.70;99.90;;;;;;5090518;28;20457;-46
2022/09/02 04:02:02;;;;;;;4.45;1.00;;;12.50;99.90;;;;;;5094276;28;20040;-46
2022/09/02 04:04:28;;;;;;;2.67;1.15;;;12.70;99.90;;;;;;5092300;28;20472;-44
2022/09/02 04:06:54;;;;;;;1.67;0.98;;;12.60;99.90;;;;;;5074977;28;20047;-45
2022/09/02 04:09:21;;;;;;;2.92;1.45;;;12.50;99.90;;;;;;5093820;28;20032;-47
2022/09/02 04:11:46;;;;;;;4.65;1.13;;;12.70;99.90;;;;;;5093881;28;20496;-45
2022/09/02 04:14:13;;;;;;;5.10;1.25;;;12.60;99.90;;;;;;5092943;28;20046;-47
2022/09/02 04:16:39;;;;;;;3.65;1.20;;;12.40;99.90;;;;;;5093268;28;20040;-46
2022/09/02 04:19:07;;;;;;;2.38;1.17;;;13.80;99.90;;;;;;5092812;28;20042;-46
2022/09/02 04:21:35;;;;;;;3.20;1.38;;;14.40;99.90;;;;;;5093460;28;21502;-46
2022/09/02 04:24:01;;;;;;;4.18;1.40;;;12.50;99.90;;;;;;5093682;28;20411;-47
2022/09/02 04:26:27;;;;;;;2.25;1.30;;;12.40;99.90;;;;;;5092526;28;20050;-45
2022/09/02 04:28:53;;;;;;;2.95;1.38;;;12.40;99.90;;;;;;5094599;28;20040;-52
2022/09/02 04:31:24;;;;;;;5.53;1.13;;;12.30;99.90;;;;;;5094413;28;20032;-49
2022/09/02 04:33:51;;;;;;;4.60;1.63;;;13.20;99.90;;;;;;5093628;28;20062;-48
2022/09/02 04:36:18;;;;;;;1.55;0.85;;;12.00;99.90;;;;;;5093614;28;20445;-46
2022/09/02 04:38:44;;;;;;;3.92;1.42;;;12.10;99.90;;;;;;5094171;28;20036;-46
2022/09/02 04:41:13;;;;;;;3.13;1.33;;;12.30;99.90;;;;;;5091082;28;20092;-39
2022/09/02 04:43:39;;;;;;;5.72;1.60;;;12.20;99.90;;;;;;5092137;28;20040;-38
2022/09/02 04:46:08;;;;;;;2.65;1.15;;;12.30;99.90;;;;;;5092547;28;20128;-39
2022/09/02 04:48:35;;;;;;;3.33;1.50;;;12.20;99.90;;;;;;5090197;28;20069;-38
2022/09/02 04:51:06;;;;;;;4.35;1.25;;;12.20;99.90;;;;;;5091962;28;20050;-39
2022/09/02 04:53:32;;;;;;;3.63;1.30;;;12.10;99.90;;;;;;5092047;28;20039;-39
2022/09/02 04:55:58;;;;;;;4.90;1.52;;;12.10;99.90;;;;;;5091173;28;20339;-38
2022/09/02 04:58:24;;;;;;;6.95;1.50;;;12.10;99.90;;;;;;5092543;28;20050;-38
2022/09/02 05:00:49;;;;;;;3.33;1.40;;;13.80;99.90;;;;;;5091099;28;20059;-38
2022/09/02 05:03:15;;;;;;;6.78;1.27;;;12.30;99.90;;;;;;5091329;28;20043;-38
2022/09/02 05:05:41;;;;;;;2.75;1.45;;;12.10;99.90;;;;;;5093065;28;20051;-39
2022/09/02 05:08:07;;;;;;;3.78;1.58;;;13.60;99.90;;;;;;5091099;28;20047;-48
2022/09/02 05:10:33;;;;;;;3.25;1.60;;;12.20;99.90;;;;;;5091420;28;20046;-47
2022/09/02 05:12:59;;;;;;;4.80;1.50;;;12.10;99.90;;;;;;5093042;28;20044;-45
2022/09/02 05:15:25;;;;;;;6.20;1.63;;;12.90;99.90;;;;;;5091417;28;20039;-46
2022/09/02 05:17:51;;;;;;;4.40;1.35;;;11.90;99.90;;;;;;5091182;28;20036;-48
2022/09/02 05:20:17;;;;;;;3.70;1.20;;;12.20;99.90;;;;;;5094062;27;20050;-44
2022/09/02 05:22:43;;;;;;;6.50;1.60;;;12.20;99.90;;;;;;5097221;27;20043;-46
2022/09/02 05:25:10;;;;;;;4.00;1.13;;;12.10;99.90;;;;;;5095559;27;20039;-46
2022/09/02 05:27:36;;;;;;;4.00;1.48;;;12.10;99.90;;;;;;5095924;27;20088;-44
2022/09/02 05:30:02;;;;;;;6.65;1.20;;;12.30;99.90;;;;;;5095447;27;20039;-46
2022/09/02 05:32:28;;;;;;;3.40;1.40;;;12.10;99.90;;;;;;5097209;27;20044;-44
2022/09/02 05:34:55;;;;;;;6.47;1.92;;;13.80;99.90;;;;;;5095683;27;20043;-45
2022/09/02 05:37:21;;;;;;;3.90;1.30;;;12.50;99.90;;;;;;5095540;28;20405;-46
2022/09/02 05:39:47;;;;;;;4.53;1.55;;;13.10;99.90;;;;;;5094761;28;20041;-46
2022/09/02 05:42:13;;;;;;;3.65;1.65;;;14.80;99.90;;;;;;5096067;27;20179;-48
2022/09/02 05:44:39;;;;;;;3.83;1.40;;;12.60;99.90;;;;;;5095254;27;20072;-48
2022/09/02 05:47:05;;;;;;;3.15;1.17;;;14.20;99.90;;;;;;5094721;27;20036;-43
2022/09/02 05:49:31;;;;;;;2.70;1.10;;;12.60;99.90;;;;;;5094509;27;20043;-51
2022/09/02 05:51:59;;;;;;;5.22;1.30;;;12.60;99.90;;;;;;5095473;27;20061;-50
2022/09/02 05:54:28;;;;;;;3.55;1.60;;;12.80;99.90;;;;;;5095000;27;20092;-52
2022/09/02 05:56:57;;;;;;;2.78;1.15;;;12.90;99.90;;;;;;5093991;27;20044;-52
2022/09/02 05:59:25;;;;;;;4.70;1.40;;;13.00;99.90;;;;;;5095584;27;20109;-49
2022/09/02 06:01:52;;;;;;;2.42;1.10;;;13.20;99.90;;;;;;5094350;27;20046;-51
2022/09/02 06:04:18;;;;;;;3.35;1.20;;;13.40;99.90;;;;;;5094278;27;20050;-50
2022/09/02 06:06:44;;;;;;;3.65;1.33;;;13.70;99.90;;;;;;5093286;27;20040;-50
2022/09/02 06:09:14;;;;;;;3.05;1.35;;;13.60;99.90;;;;;;5093775;28;20040;-50
2022/09/02 06:11:48;;;;;;;4.40;1.35;;;14.10;99.90;;;;;;5093368;27;20055;-47
2022/09/02 06:14:16;;;;;;;5.72;1.40;;;14.20;99.90;;;;;;5092100;27;20036;-52
2022/09/02 06:16:42;;;;;;;5.65;1.30;;;15.00;99.90;;;;;;5093604;27;20058;-51
2022/09/02 06:19:08;;;;;;;4.68;1.20;;;16.30;99.90;;;;;;5091564;27;20085;-50
2022/09/02 06:21:36;;;;;;;4.10;1.42;;;17.50;99.90;;;;;;5094158;27;20422;-49
2022/09/02 06:24:08;;;;;;;4.40;1.35;;;20.90;99.90;;;;;;5095003;27;20035;-52
2022/09/02 06:26:35;;;;;;;4.72;1.27;;;19.80;99.90;;;;;;5094461;27;20135;-53
2022/09/02 06:29:01;;;;;;;7.80;1.27;;;20.20;99.90;;;;;;5093325;27;20665;-51
2022/09/02 06:31:27;;;;;;;5.10;1.27;;;21.10;99.90;;;;;;5094359;27;20040;-53
2022/09/02 06:33:54;;;;;;;4.05;1.23;;;21.60;99.90;;;;;;5094355;27;20502;-50
2022/09/02 06:36:22;;;;;;;4.43;1.45;;;22.50;99.90;;;;;;5095168;27;20043;-52
2022/09/02 06:38:49;;;;;;;4.05;1.30;;;22.50;99.90;;;;;;5095258;27;20051;-53
2022/09/02 06:41:22;;;;;;;4.75;1.17;;;23.30;99.90;;;;;;5094175;27;20047;-53
2022/09/02 06:43:49;;;;;;;8.40;1.52;;;23.50;99.90;;;;;;5094445;27;20044;-53
2022/09/02 06:46:21;;;;;;;2.55;1.20;;;24.30;99.90;;;;;;5094090;28;20065;-54
2022/09/02 06:48:48;;;;;;;5.40;1.52;;;24.20;99.90;;;;;;5094569;27;20574;-54
2022/09/02 06:51:27;;;;;;;4.20;1.30;;;24.00;99.90;;;;;;5093762;28;21983;-54
2022/09/02 06:53:53;;;;;;;5.63;1.15;;;24.50;99.90;;;;;;5094908;28;20040;-52
2022/09/02 06:56:19;;;;;;;4.05;1.20;;;24.90;99.90;;;;;;5093873;27;20506;-51
2022/09/02 06:58:44;;;;;;;4.25;0.93;;;24.90;99.90;;;;;;5095019;28;20490;-54
2022/09/02 07:01:20;;;;;;;2.97;1.10;;;25.20;99.90;;;;;;5094305;27;20047;-53
2022/09/02 07:06:42;;;;;;;3.40;0.90;;;25.40;99.50;;;;;;5093990;27;20052;-53
2022/09/02 07:09:09;;;;;;;3.15;1.10;;;25.60;98.10;;;;;;5093835;27;20073;-54
2022/09/02 07:11:36;;;;;;;2.47;1.00;;;25.90;99.30;;;;;;5094065;28;20050;-54
2022/09/02 07:14:03;;;;;;;2.42;1.10;;;26.30;98.70;;;;;;5094082;27;20074;-54
2022/09/02 07:16:32;;;;;;;2.55;0.80;;;25.90;98.10;;;;;;5093059;27;20122;-54
2022/09/02 07:19:00;;;;;;;4.93;0.90;;;25.80;97.20;;;;;;5093926;27;20388;-54
2022/09/02 07:21:27;;;;;;;7.78;1.27;;;26.10;97.60;;;;;;5094194;28;20047;-53
2022/09/02 07:23:54;;;;;;;5.45;1.15;;;26.70;97.80;;;;;;5095070;27;20453;-52
2022/09/02 07:26:20;;;;;;;2.97;0.80;;;26.10;97.10;;;;;;5093368;27;20399;-54
2022/09/02 07:28:46;;;;;;;3.15;1.00;;;25.60;97.40;;;;;;5092135;27;20032;-53
2022/09/02 07:31:14;;;;;;;8.43;1.00;;;24.90;97.90;;;;;;5093908;27;20503;-53
2022/09/02 07:33:41;;;;;;;4.28;1.00;;;24.00;98.40;;;;;;5095369;27;20150;-54
2022/09/02 07:36:09;;;;;;;2.55;0.93;;;23.20;99.30;;;;;;5091551;27;20053;-52
2022/09/02 07:38:35;;;;;;;2.72;0.80;;;22.30;99.90;;;;;;5093465;27;20040;-54
2022/09/02 07:41:01;;;;;;;1.95;0.80;;;22.10;99.90;;;;;;5093162;27;20038;-54
2022/09/02 07:43:28;;;;;;;2.38;0.80;;;21.80;99.90;;;;;;5092118;27;20043;-53
2022/09/02 07:45:55;;;;;;;4.53;1.52;;;21.70;99.90;;;;;;5094143;28;20047;-53
2022/09/02 07:48:22;;;;;;;5.68;1.52;;;21.50;99.90;;;;;;5093456;27;20066;-52
2022/09/02 07:50:48;;;;;;;4.55;1.27;;;21.30;99.90;;;;;;5093860;28;20057;-53
2022/09/02 07:53:15;;;;;;;5.82;1.00;;;21.10;99.90;;;;;;5094242;28;20415;-52
2022/09/02 07:55:41;;;;;;;6.90;1.10;;;21.00;99.90;;;;;;5094396;28;20190;-53
2022/09/02 07:58:08;;;;;;;4.70;1.05;;;21.00;99.90;;;;;;5093996;27;20039;-52
2022/09/02 08:00:36;;;;;;;3.88;1.00;;;21.10;99.90;;;;;;5094009;27;20503;-53
2022/09/02 08:03:03;;;;;;;3.60;1.00;;;20.90;99.90;;;;;;5094962;27;20092;-53
2022/09/02 08:05:31;;;;;;;5.00;1.30;;;20.90;99.90;;;;;;5093417;28;20043;-54
2022/09/02 08:07:57;;;;;;;4.07;1.35;;;21.10;99.90;;;;;;5092059;28;20492;-52
2022/09/02 08:10:26;;;;;;;4.07;1.10;;;20.90;99.90;;;;;;5093704;28;20059;-51
2022/09/02 08:12:51;;;;;;;3.58;1.30;;;20.70;99.90;;;;;;5093353;27;20134;-53
2022/09/02 08:15:19;;;;;;;3.15;1.13;;;20.40;99.90;;;;;;5092507;28;20126;-52
2022/09/02 08:17:46;;;;;;;3.85;1.10;;;20.50;99.90;;;;;;5093307;28;20484;-56
2022/09/02 08:20:13;;;;;;;4.15;1.20;;;20.30;99.90;;;;;;5093688;28;20041;-53
2022/09/02 08:22:39;;;;;;;6.18;1.20;;;20.10;99.90;;;;;;5092973;28;20092;-55
2022/09/02 08:25:06;;;;;;;6.13;1.40;;;19.80;99.90;;;;;;5093134;28;20031;-53
2022/09/02 08:27:32;;;;;;;5.15;1.10;;;19.80;99.90;;;;;;5091861;28;20100;-53
2022/09/02 08:30:00;;;;;;;3.45;0.95;;;19.80;99.90;;;;;;5093279;28;20071;-54
2022/09/02 08:32:26;;;;;;;6.63;1.23;;;19.60;99.90;;;;;;5093863;28;20042;-51
2022/09/02 08:34:52;;;;;;;3.35;1.30;;;19.50;99.90;;;;;;5092462;28;20174;-53
2022/09/02 08:37:18;;;;;;;3.75;1.30;;;19.40;99.90;;;;;;5092640;28;20143;-50
2022/09/02 08:39:44;;;;;;;4.40;1.25;;;19.30;99.90;;;;;;5091684;28;20507;-54
2022/09/02 08:42:34;;;;;;;5.47;1.40;;;19.60;99.90;;;;;;5093288;28;20039;-54
2022/09/02 08:45:11;;;;;;;5.13;1.33;;;19.60;99.90;;;;;;5089740;28;20519;-53
2022/09/02 08:47:42;;;;;;;7.88;1.42;;;19.60;99.90;;;;;;5092380;28;20067;-54
2022/09/02 08:50:17;;;;;;;3.35;1.08;;;19.60;99.90;;;;;;5092577;28;22188;-52
2022/09/02 08:53:08;;;;;;;2.33;1.20;;;19.50;99.90;;;;;;5092779;28;20044;-53
2022/09/02 08:55:54;;;;;;;4.07;1.10;;;19.40;99.90;;;;;;5096687;28;20134;-52
2022/09/02 08:58:24;;;;;;;5.10;1.30;;;19.70;99.90;;;;;;5096536;27;20039;-53
2022/09/02 09:01:30;;;;;;;5.43;1.10;;;19.40;99.90;;;;;;5096472;28;20040;-51
2022/09/02 09:04:01;;;;;;;4.05;1.15;;;19.70;99.90;;;;;;5080522;27;20066;-52
2022/09/02 09:06:39;;;;;;;4.88;1.52;;;19.70;99.90;;;;;;5095174;27;20054;-52
2022/09/02 09:09:17;;;;;;;3.47;1.20;;;19.80;99.90;;;;;;5096397;27;20495;-52
2022/09/02 09:12:24;;;;;;;4.65;0.90;;;19.80;99.90;;;;;;5095995;27;20031;-52
2022/09/02 09:14:57;;;;;;;5.22;1.00;;;19.80;99.90;;;;;;5077621;27;20048;-54
2022/09/02 09:17:38;;;;;;;3.95;1.10;;;20.20;99.90;;;;;;5097556;27;20052;-53
2022/09/02 09:20:14;;;;;;;8.63;1.15;;;20.20;99.90;;;;;;5096182;27;20618;-54
2022/09/02 09:22:41;;;;;;;3.47;1.27;;;20.40;99.90;;;;;;5097452;27;20043;-53
2022/09/02 09:25:13;;;;;;;2.85;1.00;;;20.20;99.90;;;;;;5095879;27;20044;-50
2022/09/02 09:27:38;;;;;;;3.60;0.90;;;20.40;99.90;;;;;;5095168;28;20120;-53
2022/09/02 09:30:08;;;;;;;3.05;1.00;;;20.60;99.90;;;;;;5094884;27;20043;-54
2022/09/02 09:32:49;;;;;;;3.88;1.33;;;20.40;99.90;;;;;;5096381;27;20520;-51
2022/09/02 09:35:17;;;;;;;1.98;0.93;;;20.60;99.90;;;;;;5095296;27;20049;-52
2022/09/02 09:37:50;;;;;;;2.95;1.10;;;20.80;99.90;;;;;;5096216;27;20438;-54
2022/09/02 09:40:16;;;;;;;2.92;0.90;;;21.50;99.90;;;;;;5093290;27;20143;-53
2022/09/02 09:42:43;;;;;;;2.90;0.80;;;21.70;99.90;;;;;;5096151;27;20043;-54
2022/09/02 09:45:21;;;;;;;6.88;1.10;;;21.60;99.90;;;;;;5095958;27;20036;-54
2022/09/02 09:48:26;;;;;;;2.47;0.95;;;21.60;99.90;;;;;;5094205;27;20084;-54
2022/09/02 09:50:55;;;;;;;4.63;1.00;;;21.60;99.90;;;;;;5073036;28;20550;-52
2022/09/02 09:53:22;;;;;;;2.35;0.90;;;21.50;99.90;;;;;;5095827;27;20141;-53
2022/09/02 09:56:06;;;;;;;2.88;1.10;;;21.70;99.90;;;;;;5096995;27;20146;-54
2022/09/02 09:58:34;;;;;;;3.42;0.95;;;21.70;99.90;;;;;;5095240;27;20043;-53
2022/09/02 10:01:30;;;;;;;5.72;1.00;;;21.70;99.90;;;;;;5095579;27;20047;-53
2022/09/02 10:04:06;;;;;;;2.55;1.00;;;22.00;99.90;;;;;;5095748;27;20051;-54
2022/09/02 10:06:32;;;;;;;3.95;1.02;;;22.00;99.90;;;;;;5094860;28;20123;-54
2022/09/02 10:09:04;;;;;;;3.22;0.75;;;22.00;99.90;;;;;;5096345;27;20452;-54
2022/09/02 10:11:32;;;;;;;3.65;1.20;;;22.20;99.90;;;;;;5095949;27;20511;-54
2022/09/02 10:14:04;;;;;;;2.95;0.80;;;22.30;99.90;;;;;;5096652;27;20849;-53
2022/09/02 10:16:38;;;;;;;3.78;0.80;;;22.60;99.90;;;;;;5095989;27;20031;-52
2022/09/02 10:19:14;;;;;;;5.50;1.23;;;22.50;99.90;;;;;;5095785;27;20032;-54
2022/09/02 10:21:49;;;;;;;5.72;0.75;;;22.70;99.80;;;;;;5095131;27;20047;-54
2022/09/02 10:24:30;;;;;;;2.92;0.70;;;22.60;99.90;;;;;;5096092;27;20130;-55
2022/09/02 10:26:58;;;;;;;4.85;0.88;;;23.10;99.60;;;;;;5096136;27;20462;-55
2022/09/02 10:29:33;;;;;;;2.60;0.70;;;23.30;99.80;;;;;;5095700;27;20039;-53
2022/09/02 10:32:05;;;;;;;3.63;0.70;;;23.10;99.80;;;;;;5096431;27;20127;-54
2022/09/02 10:35:02;;;;;;;3.60;0.70;;;23.00;99.80;;;;;;5096713;27;20043;-54
2022/09/02 10:37:54;;;;;;;3.08;0.90;;;23.00;98.30;;;;;;5094485;27;20594;-53
2022/09/02 10:40:32;;;;;;;6.45;0.95;;;25.00;99.30;;;;;;5095482;27;20233;-55
2022/09/02 10:43:06;;;;;;;4.25;0.90;;;23.40;99.50;;;;;;5096170;27;20519;-55
2022/09/02 10:45:35;;;;;;;5.05;1.00;;;23.30;99.40;;;;;;5095779;27;20104;-52
2022/09/02 10:48:13;;;;;;;4.25;1.00;;;23.70;99.20;;;;;;5094729;27;20052;-54
2022/09/02 10:50:54;;;;;;;3.95;0.80;;;23.70;97.80;;;;;;5094228;27;20055;-53
2022/09/02 10:53:47;;;;;;;3.42;1.48;;;23.60;98.20;;;;;;5095786;27;20074;-53
2022/09/02 10:56:20;;;;;;;8.10;1.20;;;23.70;97.90;;;;;;5095644;27;20035;-49
2022/09/02 10:59:04;;;;;;;3.10;0.90;;;23.50;98.20;;;;;;5094459;27;20043;-54
2022/09/02 11:01:36;;;;;;;1.95;0.60;;;23.50;97.90;;;;;;5095866;27;20780;-53
2022/09/02 11:04:15;;;;;;;3.20;0.73;;;23.60;97.80;;;;;;5095605;27;20051;-55
2022/09/02 11:06:45;;;;;;;7.78;1.05;;;23.80;97.70;;;;;;5093789;27;20124;-50
2022/09/02 11:09:40;;;;;;;4.53;0.88;;;24.00;98.00;;;;;;5094049;27;20050;-55
2022/09/02 11:12:06;;;;;;;3.97;1.00;;;23.80;97.20;;;;;;5093141;27;20560;-55
2022/09/02 11:14:50;;;;;;;2.47;0.80;;;23.90;97.70;;;;;;5092788;27;20047;-55
2022/09/02 11:17:36;;;;;;;2.53;0.80;;;23.90;97.10;;;;;;5094696;27;20067;-55
2022/09/02 11:20:14;;;;;;;3.15;0.80;;;24.40;96.20;;;;;;5095196;27;20043;-55
2022/09/02 11:22:59;;;;;;;5.57;0.90;;;24.60;96.20;;;;;;5093874;27;20047;-53
2022/09/02 11:25:32;;;;;;;3.33;1.00;;;24.70;95.70;;;;;;5094589;27;20036;-56
2022/09/02 11:28:05;;;;;;;4.38;0.90;;;24.50;96.60;;;;;;5094137;27;20050;-55
2022/09/02 11:30:54;;;;;;;3.78;1.10;;;24.40;96.40;;;;;;5093966;27;20031;-55
2022/09/02 11:33:29;;;;;;;4.35;1.08;;;24.60;95.60;;;;;;5096496;27;20666;-55
2022/09/02 11:35:57;;;;;;;2.67;0.82;;;25.00;96.70;;;;;;5095011;27;20047;-56
2022/09/02 11:38:35;;;;;;;2.88;0.85;;;24.70;96.00;;;;;;5094325;27;20747;-55
2022/09/02 11:41:25;;;;;;;5.03;1.00;;;25.10;94.70;;;;;;5093711;27;20047;-54
2022/09/02 11:44:15;;;;;;;2.17;0.70;;;25.00;94.70;;;;;;5093483;28;20067;-55
2022/09/02 11:46:59;;;;;;;2.33;0.73;;;25.00;95.40;;;;;;5093214;27;20039;-56
2022/09/02 11:49:32;;;;;;;5.97;1.20;;;25.10;94.80;;;;;;5093876;27;20040;-56
2022/09/02 11:52:02;;;;;;;5.15;1.00;;;24.90;94.60;;;;;;5094639;28;20471;-55
2022/09/02 11:54:38;;;;;;;6.95;1.13;;;24.70;95.30;;;;;;5092482;27;20472;-55
2022/09/02 11:57:05;;;;;;;6.18;0.80;;;24.90;95.00;;;;;;5093118;28;20467;-55
2022/09/02 11:59:49;;;;;;;3.28;0.73;;;25.10;95.10;;;;;;5093303;28;20068;-55
2022/09/02 12:02:36;;;;;;;4.13;0.90;;;25.10;94.90;;;;;;5094101;27;20044;-54
2022/09/02 12:05:30;;;;;;;3.90;0.88;;;24.90;94.40;;;;;;5095124;27;20050;-56
2022/09/02 12:08:00;;;;;;;5.70;1.13;;;24.90;94.80;;;;;;5094526;28;20252;-54
2022/09/02 12:10:48;;;;;;;5.78;1.05;;;25.20;94.30;;;;;;5093019;28;20134;-55
2022/09/02 12:13:47;;;;;;;4.72;0.80;;;25.20;93.90;;;;;;5092030;27;20457;-55
2022/09/02 12:16:18;;;;;;;3.80;1.08;;;25.10;94.50;;;;;;5091114;28;20499;-56
2022/09/02 12:18:59;;;;;;;2.97;0.90;;;25.10;93.90;;;;;;5092877;28;20503;-57
2022/09/02 12:21:27;;;;;;;11.05;0.95;;;25.20;93.90;;;;;;5093606;27;20043;-56
2022/09/02 12:23:56;;;;;;;5.47;0.80;;;25.20;94.60;;;;;;5093251;28;20063;-56
2022/09/02 12:26:49;;;;;;;6.03;0.90;;;25.40;94.50;;;;;;5095253;28;20138;-57
2022/09/02 12:29:17;;;;;;;2.78;0.70;;;25.50;93.20;;;;;;5096682;28;20063;-56
2022/09/02 12:31:48;;;;;;;3.47;0.70;;;25.40;93.00;;;;;;5100230;27;20054;-56
2022/09/02 12:34:40;;;;;;;2.70;0.75;;;25.30;93.00;;;;;;5100010;27;20797;-57
2022/09/02 12:37:06;;;;;;;3.45;0.70;;;25.40;93.20;;;;;;5099429;27;20050;-57
2022/09/02 12:39:34;;;;;;;5.07;1.00;;;25.50;93.40;;;;;;5099175;27;20035;-58
2022/09/02 12:42:02;;;;;;;2.55;0.80;;;25.50;93.10;;;;;;5098781;27;20058;-56
2022/09/02 12:44:34;;;;;;;6.18;0.90;;;25.80;92.70;;;;;;5098753;27;20287;-56
2022/09/02 12:47:18;;;;;;;7.40;1.13;;;25.70;92.00;;;;;;5098356;27;20043;-56
2022/09/02 12:49:59;;;;;;;3.25;0.80;;;25.60;91.90;;;;;;5097872;28;20063;-56
2022/09/02 12:52:38;;;;;;;1.23;0.63;;;25.70;92.20;;;;;;5098000;28;20109;-56
2022/09/02 12:55:15;;;;;;;2.03;0.88;;;25.70;92.30;;;;;;5097983;27;20181;-57
2022/09/02 12:57:44;;;;;;;3.13;0.70;;;25.90;92.00;;;;;;5097569;28;20419;-56
2022/09/02 13:00:27;;;;;;;6.15;0.90;;;25.70;91.90;;;;;;5097677;27;20060;-57
2022/09/02 13:03:00;;;;;;;3.95;1.00;;;25.80;91.70;;;;;;5098595;27;20500;-56
2022/09/02 13:06:11;;;;;;;1.83;0.90;;;25.80;92.10;;;;;;5098312;27;20783;-55
2022/09/02 13:08:48;;;;;;;3.00;0.85;;;25.80;90.90;;;;;;5080158;28;20050;-57